sensor_id;sensor_type;location;lat;lon;timestamp;P1;durP1;ratioP1;P2;durP2;ratioP2
24273;SDS011;12392;42.678;23.380;2023-07-31T00:00:53;2.83;;;2.63;;
24273;SDS011;12392;42.678;23.380;2023-07-31T00:03:19;2.85;;;2.65;;
24273;SDS011;12392;42.678;23.380;2023-07-31T00:05:44;3.15;;;2.85;;
24273;SDS011;12392;42.678;23.380;2023-07-31T00:08:10;3.05;;;2.85;;
24273;SDS011;12392;42.678;23.380;2023-07-31T00:10:36;4.57;;;2.70;;
24273;SDS011;12392;42.678;23.380;2023-07-31T00:13:01;4.15;;;3.10;;
24273;SDS011;12392;42.678;23.380;2023-07-31T00:15:27;3.95;;;2.65;;
24273;SDS011;12392;42.678;23.380;2023-07-31T00:17:53;2.80;;;2.60;;
24273;SDS011;12392;42.678;23.380;2023-07-31T00:20:19;3.17;;;2.80;;
24273;SDS011;12392;42.678;23.380;2023-07-31T00:22:44;3.13;;;2.70;;
24273;SDS011;12392;42.678;23.380;2023-07-31T00:25:10;3.08;;;2.85;;
24273;SDS011;12392;42.678;23.380;2023-07-31T00:27:36;3.58;;;3.00;;
24273;SDS011;12392;42.678;23.380;2023-07-31T00:30:02;4.90;;;2.78;;
24273;SDS011;12392;42.678;23.380;2023-07-31T00:32:29;3.13;;;2.90;;
24273;SDS011;12392;42.678;23.380;2023-07-31T00:34:55;3.10;;;2.80;;
24273;SDS011;12392;42.678;23.380;2023-07-31T00:37:20;2.90;;;2.65;;
24273;SDS011;12392;42.678;23.380;2023-07-31T00:39:46;3.40;;;3.10;;
24273;SDS011;12392;42.678;23.380;2023-07-31T00:42:12;3.15;;;2.85;;
24273;SDS011;12392;42.678;23.380;2023-07-31T00:44:37;3.50;;;2.80;;
24273;SDS011;12392;42.678;23.380;2023-07-31T00:47:03;3.22;;;2.92;;
24273;SDS011;12392;42.678;23.380;2023-07-31T00:49:29;4.43;;;3.50;;
24273;SDS011;12392;42.678;23.380;2023-07-31T00:51:54;3.80;;;3.17;;
24273;SDS011;12392;42.678;23.380;2023-07-31T00:54:22;4.35;;;3.90;;
24273;SDS011;12392;42.678;23.380;2023-07-31T00:56:48;5.65;;;3.47;;
24273;SDS011;12392;42.678;23.380;2023-07-31T00:59:16;5.15;;;3.70;;
24273;SDS011;12392;42.678;23.380;2023-07-31T01:01:43;4.20;;;3.72;;
24273;SDS011;12392;42.678;23.380;2023-07-31T01:04:09;4.32;;;3.92;;
24273;SDS011;12392;42.678;23.380;2023-07-31T01:06:38;5.03;;;4.53;;
24273;SDS011;12392;42.678;23.380;2023-07-31T01:09:27;5.50;;;5.00;;
24273;SDS011;12392;42.678;23.380;2023-07-31T01:12:02;7.78;;;5.97;;
24273;SDS011;12392;42.678;23.380;2023-07-31T01:14:29;7.30;;;6.53;;
24273;SDS011;12392;42.678;23.380;2023-07-31T01:16:55;8.40;;;7.57;;
24273;SDS011;12392;42.678;23.380;2023-07-31T01:19:24;8.77;;;7.97;;
24273;SDS011;12392;42.678;23.380;2023-07-31T01:27:21;10.07;;;9.02;;
24273;SDS011;12392;42.678;23.380;2023-07-31T01:29:57;10.32;;;9.32;;
24273;SDS011;12392;42.678;23.380;2023-07-31T01:32:30;14.27;;;10.18;;
24273;SDS011;12392;42.678;23.380;2023-07-31T01:34:57;12.18;;;10.88;;
24273;SDS011;12392;42.678;23.380;2023-07-31T01:37:27;14.43;;;11.38;;
24273;SDS011;12392;42.678;23.380;2023-07-31T01:39:54;12.48;;;11.15;;
24273;SDS011;12392;42.678;23.380;2023-07-31T01:42:20;13.10;;;11.63;;
24273;SDS011;12392;42.678;23.380;2023-07-31T01:44:46;16.55;;;12.85;;
24273;SDS011;12392;42.678;23.380;2023-07-31T01:47:11;16.50;;;12.82;;
24273;SDS011;12392;42.678;23.380;2023-07-31T01:49:37;13.57;;;12.20;;
24273;SDS011;12392;42.678;23.380;2023-07-31T01:52:03;15.18;;;13.68;;
24273;SDS011;12392;42.678;23.380;2023-07-31T01:54:29;14.93;;;13.40;;
24273;SDS011;12392;42.678;23.380;2023-07-31T01:56:54;16.30;;;14.13;;
24273;SDS011;12392;42.678;23.380;2023-07-31T01:59:20;16.55;;;14.85;;
24273;SDS011;12392;42.678;23.380;2023-07-31T02:01:46;17.23;;;15.52;;
24273;SDS011;12392;42.678;23.380;2023-07-31T02:04:12;18.85;;;16.95;;
24273;SDS011;12392;42.678;23.380;2023-07-31T02:06:39;19.90;;;17.83;;
24273;SDS011;12392;42.678;23.380;2023-07-31T02:09:05;20.88;;;18.67;;
24273;SDS011;12392;42.678;23.380;2023-07-31T02:11:30;20.55;;;18.33;;
24273;SDS011;12392;42.678;23.380;2023-07-31T02:13:56;20.70;;;18.60;;
24273;SDS011;12392;42.678;23.380;2023-07-31T02:16:22;19.55;;;17.52;;
24273;SDS011;12392;42.678;23.380;2023-07-31T02:18:47;20.15;;;17.85;;
24273;SDS011;12392;42.678;23.380;2023-07-31T02:21:13;19.15;;;17.15;;
24273;SDS011;12392;42.678;23.380;2023-07-31T02:23:39;20.67;;;17.88;;
24273;SDS011;12392;42.678;23.380;2023-07-31T02:26:04;20.65;;;18.50;;
24273;SDS011;12392;42.678;23.380;2023-07-31T02:28:30;21.10;;;18.75;;
24273;SDS011;12392;42.678;23.380;2023-07-31T02:30:55;21.63;;;17.75;;
24273;SDS011;12392;42.678;23.380;2023-07-31T02:33:21;20.67;;;18.48;;
24273;SDS011;12392;42.678;23.380;2023-07-31T02:35:47;20.83;;;18.73;;
24273;SDS011;12392;42.678;23.380;2023-07-31T02:38:12;21.55;;;19.27;;
24273;SDS011;12392;42.678;23.380;2023-07-31T02:40:41;19.83;;;17.33;;
24273;SDS011;12392;42.678;23.380;2023-07-31T02:43:07;21.42;;;18.23;;
24273;SDS011;12392;42.678;23.380;2023-07-31T02:45:33;20.35;;;17.92;;
24273;SDS011;12392;42.678;23.380;2023-07-31T02:47:59;20.42;;;18.33;;
24273;SDS011;12392;42.678;23.380;2023-07-31T02:50:25;20.60;;;18.48;;
24273;SDS011;12392;42.678;23.380;2023-07-31T02:52:52;20.50;;;18.30;;
24273;SDS011;12392;42.678;23.380;2023-07-31T02:55:18;22.77;;;19.92;;
24273;SDS011;12392;42.678;23.380;2023-07-31T02:57:44;21.70;;;19.33;;
24273;SDS011;12392;42.678;23.380;2023-07-31T03:00:09;21.15;;;18.90;;
24273;SDS011;12392;42.678;23.380;2023-07-31T03:02:35;20.55;;;18.40;;
24273;SDS011;12392;42.678;23.380;2023-07-31T03:05:01;22.02;;;19.67;;
24273;SDS011;12392;42.678;23.380;2023-07-31T03:07:26;21.63;;;19.30;;
24273;SDS011;12392;42.678;23.380;2023-07-31T03:09:52;22.85;;;19.90;;
24273;SDS011;12392;42.678;23.380;2023-07-31T03:12:18;20.95;;;18.75;;
24273;SDS011;12392;42.678;23.380;2023-07-31T03:14:44;22.17;;;19.90;;
24273;SDS011;12392;42.678;23.380;2023-07-31T03:17:10;21.88;;;19.45;;
24273;SDS011;12392;42.678;23.380;2023-07-31T03:19:35;22.15;;;19.80;;
24273;SDS011;12392;42.678;23.380;2023-07-31T03:22:01;22.90;;;19.85;;
24273;SDS011;12392;42.678;23.380;2023-07-31T03:24:28;22.92;;;20.48;;
24273;SDS011;12392;42.678;23.380;2023-07-31T03:26:54;22.83;;;19.05;;
24273;SDS011;12392;42.678;23.380;2023-07-31T03:29:19;24.73;;;19.98;;
24273;SDS011;12392;42.678;23.380;2023-07-31T03:31:45;23.48;;;20.95;;
24273;SDS011;12392;42.678;23.380;2023-07-31T03:34:11;22.80;;;20.48;;
24273;SDS011;12392;42.678;23.380;2023-07-31T03:36:36;21.75;;;19.10;;
24273;SDS011;12392;42.678;23.380;2023-07-31T03:39:02;22.48;;;20.08;;
24273;SDS011;12392;42.678;23.380;2023-07-31T03:41:28;21.63;;;19.42;;
24273;SDS011;12392;42.678;23.380;2023-07-31T03:43:54;24.85;;;20.33;;
24273;SDS011;12392;42.678;23.380;2023-07-31T03:46:23;22.17;;;19.88;;
24273;SDS011;12392;42.678;23.380;2023-07-31T03:48:49;21.95;;;19.65;;
24273;SDS011;12392;42.678;23.380;2023-07-31T03:51:15;23.90;;;20.38;;
24273;SDS011;12392;42.678;23.380;2023-07-31T03:53:42;22.60;;;20.25;;
24273;SDS011;12392;42.678;23.380;2023-07-31T03:56:08;24.15;;;20.67;;
24273;SDS011;12392;42.678;23.380;2023-07-31T03:58:33;22.45;;;19.83;;
24273;SDS011;12392;42.678;23.380;2023-07-31T04:01:01;23.13;;;20.73;;
24273;SDS011;12392;42.678;23.380;2023-07-31T04:03:26;22.15;;;19.67;;
24273;SDS011;12392;42.678;23.380;2023-07-31T04:05:53;23.10;;;20.33;;
24273;SDS011;12392;42.678;23.380;2023-07-31T04:08:20;23.15;;;20.25;;
24273;SDS011;12392;42.678;23.380;2023-07-31T04:10:46;22.38;;;20.08;;
24273;SDS011;12392;42.678;23.380;2023-07-31T04:13:12;25.60;;;21.73;;
24273;SDS011;12392;42.678;23.380;2023-07-31T04:15:38;24.33;;;21.73;;
24273;SDS011;12392;42.678;23.380;2023-07-31T04:18:04;25.40;;;22.48;;
24273;SDS011;12392;42.678;23.380;2023-07-31T04:20:30;26.48;;;21.35;;
24273;SDS011;12392;42.678;23.380;2023-07-31T04:22:56;27.02;;;23.67;;
24273;SDS011;12392;42.678;23.380;2023-07-31T04:25:21;24.98;;;22.30;;
24273;SDS011;12392;42.678;23.380;2023-07-31T04:27:47;28.70;;;23.42;;
24273;SDS011;12392;42.678;23.380;2023-07-31T04:30:13;25.27;;;22.55;;
24273;SDS011;12392;42.678;23.380;2023-07-31T04:32:38;27.75;;;23.08;;
24273;SDS011;12392;42.678;23.380;2023-07-31T04:35:04;25.83;;;23.13;;
24273;SDS011;12392;42.678;23.380;2023-07-31T04:37:30;24.35;;;21.33;;
24273;SDS011;12392;42.678;23.380;2023-07-31T04:39:56;25.58;;;22.33;;
24273;SDS011;12392;42.678;23.380;2023-07-31T04:42:22;27.25;;;22.95;;
24273;SDS011;12392;42.678;23.380;2023-07-31T04:44:47;26.42;;;21.65;;
24273;SDS011;12392;42.678;23.380;2023-07-31T04:47:13;25.25;;;22.48;;
24273;SDS011;12392;42.678;23.380;2023-07-31T04:49:39;23.98;;;21.45;;
24273;SDS011;12392;42.678;23.380;2023-07-31T04:52:04;26.25;;;20.88;;
24273;SDS011;12392;42.678;23.380;2023-07-31T04:54:30;25.40;;;20.80;;
24273;SDS011;12392;42.678;23.380;2023-07-31T04:56:56;28.33;;;21.42;;
24273;SDS011;12392;42.678;23.380;2023-07-31T04:59:22;28.48;;;21.20;;
24273;SDS011;12392;42.678;23.380;2023-07-31T05:01:47;25.00;;;21.42;;
24273;SDS011;12392;42.678;23.380;2023-07-31T05:04:13;21.88;;;19.38;;
24273;SDS011;12392;42.678;23.380;2023-07-31T05:06:39;22.48;;;20.08;;
24273;SDS011;12392;42.678;23.380;2023-07-31T05:09:05;24.10;;;19.92;;
24273;SDS011;12392;42.678;23.380;2023-07-31T05:11:31;28.13;;;19.70;;
24273;SDS011;12392;42.678;23.380;2023-07-31T05:13:57;21.63;;;19.30;;
24273;SDS011;12392;42.678;23.380;2023-07-31T05:16:22;21.60;;;19.30;;
24273;SDS011;12392;42.678;23.380;2023-07-31T05:18:48;26.15;;;20.60;;
24273;SDS011;12392;42.678;23.380;2023-07-31T05:21:14;22.48;;;18.77;;
24273;SDS011;12392;42.678;23.380;2023-07-31T05:23:39;19.20;;;17.27;;
24273;SDS011;12392;42.678;23.380;2023-07-31T05:26:05;19.80;;;17.80;;
24273;SDS011;12392;42.678;23.380;2023-07-31T05:28:33;20.35;;;16.85;;
24273;SDS011;12392;42.678;23.380;2023-07-31T05:31:03;19.92;;;16.55;;
24273;SDS011;12392;42.678;23.380;2023-07-31T05:33:29;19.95;;;15.52;;
24273;SDS011;12392;42.678;23.380;2023-07-31T05:35:55;16.88;;;14.95;;
24273;SDS011;12392;42.678;23.380;2023-07-31T05:38:21;19.73;;;15.00;;
24273;SDS011;12392;42.678;23.380;2023-07-31T05:40:47;19.02;;;15.90;;
24273;SDS011;12392;42.678;23.380;2023-07-31T05:43:13;18.55;;;13.77;;
24273;SDS011;12392;42.678;23.380;2023-07-31T05:45:39;20.73;;;13.63;;
24273;SDS011;12392;42.678;23.380;2023-07-31T05:48:06;15.75;;;13.50;;
24273;SDS011;12392;42.678;23.380;2023-07-31T05:50:32;14.80;;;13.27;;
24273;SDS011;12392;42.678;23.380;2023-07-31T05:52:58;13.80;;;12.18;;
24273;SDS011;12392;42.678;23.380;2023-07-31T05:55:23;13.02;;;11.63;;
24273;SDS011;12392;42.678;23.380;2023-07-31T05:57:51;12.55;;;11.38;;
24273;SDS011;12392;42.678;23.380;2023-07-31T06:00:17;12.43;;;10.77;;
24273;SDS011;12392;42.678;23.380;2023-07-31T06:02:43;13.55;;;10.23;;
24273;SDS011;12392;42.678;23.380;2023-07-31T06:05:09;10.98;;;9.85;;
24273;SDS011;12392;42.678;23.380;2023-07-31T06:07:35;12.68;;;8.43;;
24273;SDS011;12392;42.678;23.380;2023-07-31T06:10:01;10.85;;;9.77;;
24273;SDS011;12392;42.678;23.380;2023-07-31T06:12:30;10.40;;;9.23;;
24273;SDS011;12392;42.678;23.380;2023-07-31T06:14:56;16.83;;;8.88;;
24273;SDS011;12392;42.678;23.380;2023-07-31T06:17:22;14.48;;;8.75;;
24273;SDS011;12392;42.678;23.380;2023-07-31T06:19:48;13.82;;;8.20;;
24273;SDS011;12392;42.678;23.380;2023-07-31T06:22:14;82.60;;;9.95;;
24273;SDS011;12392;42.678;23.380;2023-07-31T06:24:40;9.13;;;7.13;;
24273;SDS011;12392;42.678;23.380;2023-07-31T06:27:06;9.38;;;7.72;;
24273;SDS011;12392;42.678;23.380;2023-07-31T06:29:32;15.18;;;6.60;;
24273;SDS011;12392;42.678;23.380;2023-07-31T06:31:57;128.27;;;10.23;;
24273;SDS011;12392;42.678;23.380;2023-07-31T06:34:23;35.80;;;7.82;;
24273;SDS011;12392;42.678;23.380;2023-07-31T06:36:49;8.93;;;6.00;;
24273;SDS011;12392;42.678;23.380;2023-07-31T06:39:15;11.07;;;9.07;;
24273;SDS011;12392;42.678;23.380;2023-07-31T06:41:41;9.95;;;5.20;;
24273;SDS011;12392;42.678;23.380;2023-07-31T06:44:07;11.30;;;5.30;;
24273;SDS011;12392;42.678;23.380;2023-07-31T06:46:33;5.72;;;5.13;;
24273;SDS011;12392;42.678;23.380;2023-07-31T06:48:59;5.55;;;5.00;;
24273;SDS011;12392;42.678;23.380;2023-07-31T06:51:25;8.05;;;5.30;;
24273;SDS011;12392;42.678;23.380;2023-07-31T06:53:50;5.88;;;5.10;;
24273;SDS011;12392;42.678;23.380;2023-07-31T06:56:16;8.35;;;5.00;;
24273;SDS011;12392;42.678;23.380;2023-07-31T06:58:42;7.45;;;4.47;;
24273;SDS011;12392;42.678;23.380;2023-07-31T07:01:08;6.55;;;4.93;;
24273;SDS011;12392;42.678;23.380;2023-07-31T07:03:33;10.52;;;4.65;;
24273;SDS011;12392;42.678;23.380;2023-07-31T07:05:59;4.65;;;4.22;;
24273;SDS011;12392;42.678;23.380;2023-07-31T07:08:25;5.95;;;4.60;;
24273;SDS011;12392;42.678;23.380;2023-07-31T07:10:51;6.60;;;4.32;;
24273;SDS011;12392;42.678;23.380;2023-07-31T07:13:17;7.18;;;4.00;;
24273;SDS011;12392;42.678;23.380;2023-07-31T07:15:43;4.38;;;3.85;;
24273;SDS011;12392;42.678;23.380;2023-07-31T07:18:18;9.25;;;4.30;;
24273;SDS011;12392;42.678;23.380;2023-07-31T07:20:47;5.70;;;4.40;;
24273;SDS011;12392;42.678;23.380;2023-07-31T07:23:16;10.15;;;4.00;;
24273;SDS011;12392;42.678;23.380;2023-07-31T07:25:43;6.85;;;4.53;;
24273;SDS011;12392;42.678;23.380;2023-07-31T07:28:09;5.15;;;4.60;;
24273;SDS011;12392;42.678;23.380;2023-07-31T07:30:35;6.28;;;3.95;;
24273;SDS011;12392;42.678;23.380;2023-07-31T07:33:01;5.45;;;4.25;;
24273;SDS011;12392;42.678;23.380;2023-07-31T07:35:27;6.07;;;4.07;;
24273;SDS011;12392;42.678;23.380;2023-07-31T07:37:53;6.22;;;4.32;;
24273;SDS011;12392;42.678;23.380;2023-07-31T07:40:19;4.80;;;4.05;;
24273;SDS011;12392;42.678;23.380;2023-07-31T07:42:45;8.65;;;4.15;;
24273;SDS011;12392;42.678;23.380;2023-07-31T07:45:10;4.15;;;3.28;;
24273;SDS011;12392;42.678;23.380;2023-07-31T07:47:37;7.22;;;3.78;;
24273;SDS011;12392;42.678;23.380;2023-07-31T07:50:05;26.27;;;4.15;;
24273;SDS011;12392;42.678;23.380;2023-07-31T07:52:31;5.70;;;3.50;;
24273;SDS011;12392;42.678;23.380;2023-07-31T07:54:57;13.80;;;4.15;;
24273;SDS011;12392;42.678;23.380;2023-07-31T07:57:22;9.32;;;3.90;;
24273;SDS011;12392;42.678;23.380;2023-07-31T07:59:48;7.68;;;3.30;;
24273;SDS011;12392;42.678;23.380;2023-07-31T08:02:14;8.88;;;3.95;;
24273;SDS011;12392;42.678;23.380;2023-07-31T08:04:39;11.40;;;4.40;;
24273;SDS011;12392;42.678;23.380;2023-07-31T08:07:05;32.00;;;4.10;;
24273;SDS011;12392;42.678;23.380;2023-07-31T08:09:31;4.70;;;3.65;;
24273;SDS011;12392;42.678;23.380;2023-07-31T08:11:56;7.47;;;3.53;;
24273;SDS011;12392;42.678;23.380;2023-07-31T08:14:27;4.32;;;3.17;;
24273;SDS011;12392;42.678;23.380;2023-07-31T08:16:52;10.52;;;3.90;;
24273;SDS011;12392;42.678;23.380;2023-07-31T08:19:18;10.95;;;3.35;;
24273;SDS011;12392;42.678;23.380;2023-07-31T08:21:44;5.38;;;3.80;;
24273;SDS011;12392;42.678;23.380;2023-07-31T08:24:13;10.93;;;3.58;;
24273;SDS011;12392;42.678;23.380;2023-07-31T08:26:38;8.43;;;3.80;;
24273;SDS011;12392;42.678;23.380;2023-07-31T08:29:04;5.65;;;3.35;;
24273;SDS011;12392;42.678;23.380;2023-07-31T08:31:30;5.28;;;3.50;;
24273;SDS011;12392;42.678;23.380;2023-07-31T08:33:55;3.85;;;3.40;;
24273;SDS011;12392;42.678;23.380;2023-07-31T08:36:21;5.40;;;3.45;;
24273;SDS011;12392;42.678;23.380;2023-07-31T08:38:47;4.38;;;3.80;;
24273;SDS011;12392;42.678;23.380;2023-07-31T08:41:13;5.32;;;3.40;;
24273;SDS011;12392;42.678;23.380;2023-07-31T08:43:39;4.05;;;3.65;;
24273;SDS011;12392;42.678;23.380;2023-07-31T08:46:05;7.05;;;3.72;;
24273;SDS011;12392;42.678;23.380;2023-07-31T08:48:31;7.70;;;4.20;;
24273;SDS011;12392;42.678;23.380;2023-07-31T08:51:00;6.30;;;3.30;;
24273;SDS011;12392;42.678;23.380;2023-07-31T08:53:25;5.38;;;3.33;;
24273;SDS011;12392;42.678;23.380;2023-07-31T08:55:52;6.00;;;3.30;;
24273;SDS011;12392;42.678;23.380;2023-07-31T08:58:19;3.65;;;3.35;;
24273;SDS011;12392;42.678;23.380;2023-07-31T09:00:45;5.45;;;3.47;;
24273;SDS011;12392;42.678;23.380;2023-07-31T09:03:13;5.43;;;3.42;;
24273;SDS011;12392;42.678;23.380;2023-07-31T09:05:41;6.10;;;3.85;;
24273;SDS011;12392;42.678;23.380;2023-07-31T09:08:09;3.58;;;3.15;;
24273;SDS011;12392;42.678;23.380;2023-07-31T09:10:39;6.90;;;3.42;;
24273;SDS011;12392;42.678;23.380;2023-07-31T09:13:09;6.75;;;3.38;;
24273;SDS011;12392;42.678;23.380;2023-07-31T09:15:35;5.13;;;2.95;;
24273;SDS011;12392;42.678;23.380;2023-07-31T09:18:02;9.98;;;3.85;;
24273;SDS011;12392;42.678;23.380;2023-07-31T09:20:30;6.85;;;3.75;;
24273;SDS011;12392;42.678;23.380;2023-07-31T09:22:56;4.80;;;3.42;;
24273;SDS011;12392;42.678;23.380;2023-07-31T09:25:23;8.50;;;3.30;;
24273;SDS011;12392;42.678;23.380;2023-07-31T09:30:19;6.88;;;3.10;;
24273;SDS011;12392;42.678;23.380;2023-07-31T09:32:46;9.93;;;3.28;;
24273;SDS011;12392;42.678;23.380;2023-07-31T09:35:27;4.82;;;3.65;;
24273;SDS011;12392;42.678;23.380;2023-07-31T09:37:53;3.72;;;2.90;;
24273;SDS011;12392;42.678;23.380;2023-07-31T09:40:30;5.15;;;2.88;;
24273;SDS011;12392;42.678;23.380;2023-07-31T09:43:07;3.80;;;3.33;;
24273;SDS011;12392;42.678;23.380;2023-07-31T09:45:36;3.67;;;3.08;;
24273;SDS011;12392;42.678;23.380;2023-07-31T09:48:03;5.55;;;2.90;;
24273;SDS011;12392;42.678;23.380;2023-07-31T09:50:32;3.22;;;2.92;;
24273;SDS011;12392;42.678;23.380;2023-07-31T09:52:58;5.38;;;2.95;;
24273;SDS011;12392;42.678;23.380;2023-07-31T09:55:24;4.07;;;3.58;;
24273;SDS011;12392;42.678;23.380;2023-07-31T09:57:50;3.78;;;3.35;;
24273;SDS011;12392;42.678;23.380;2023-07-31T10:00:16;3.38;;;2.85;;
24273;SDS011;12392;42.678;23.380;2023-07-31T10:02:46;4.85;;;2.97;;
24273;SDS011;12392;42.678;23.380;2023-07-31T10:05:15;4.15;;;2.45;;
24273;SDS011;12392;42.678;23.380;2023-07-31T10:07:51;5.25;;;2.20;;
24273;SDS011;12392;42.678;23.380;2023-07-31T10:10:20;3.70;;;2.75;;
24273;SDS011;12392;42.678;23.380;2023-07-31T10:12:47;3.15;;;2.70;;
24273;SDS011;12392;42.678;23.380;2023-07-31T10:15:17;2.92;;;2.50;;
24273;SDS011;12392;42.678;23.380;2023-07-31T10:17:42;3.63;;;2.42;;
24273;SDS011;12392;42.678;23.380;2023-07-31T10:20:08;2.63;;;2.08;;
24273;SDS011;12392;42.678;23.380;2023-07-31T10:22:37;3.88;;;2.20;;
24273;SDS011;12392;42.678;23.380;2023-07-31T10:25:04;2.00;;;1.90;;
24273;SDS011;12392;42.678;23.380;2023-07-31T10:27:30;2.92;;;2.70;;
24273;SDS011;12392;42.678;23.380;2023-07-31T10:29:56;6.95;;;2.60;;
24273;SDS011;12392;42.678;23.380;2023-07-31T10:32:22;5.05;;;2.53;;
24273;SDS011;12392;42.678;23.380;2023-07-31T10:34:49;4.45;;;2.67;;
24273;SDS011;12392;42.678;23.380;2023-07-31T10:37:22;2.20;;;1.83;;
24273;SDS011;12392;42.678;23.380;2023-07-31T10:40:12;4.65;;;1.98;;
24273;SDS011;12392;42.678;23.380;2023-07-31T10:42:48;2.20;;;2.00;;
24273;SDS011;12392;42.678;23.380;2023-07-31T10:48:04;6.15;;;2.00;;
24273;SDS011;12392;42.678;23.380;2023-07-31T10:50:52;2.47;;;1.98;;
24273;SDS011;12392;42.678;23.380;2023-07-31T10:53:30;2.97;;;1.75;;
24273;SDS011;12392;42.678;23.380;2023-07-31T10:56:00;6.25;;;2.30;;
24273;SDS011;12392;42.678;23.380;2023-07-31T10:58:26;2.05;;;1.95;;
24273;SDS011;12392;42.678;23.380;2023-07-31T11:00:56;3.38;;;2.25;;
24273;SDS011;12392;42.678;23.380;2023-07-31T11:03:27;2.40;;;2.20;;
24273;SDS011;12392;42.678;23.380;2023-07-31T11:06:05;4.43;;;2.20;;
24273;SDS011;12392;42.678;23.380;2023-07-31T11:08:35;4.05;;;2.47;;
24273;SDS011;12392;42.678;23.380;2023-07-31T11:13:31;2.55;;;2.05;;
24273;SDS011;12392;42.678;23.380;2023-07-31T11:16:07;3.15;;;1.70;;
24273;SDS011;12392;42.678;23.380;2023-07-31T11:18:34;2.75;;;1.98;;
24273;SDS011;12392;42.678;23.380;2023-07-31T11:21:00;1.88;;;1.77;;
24273;SDS011;12392;42.678;23.380;2023-07-31T11:23:26;3.65;;;1.92;;
24273;SDS011;12392;42.678;23.380;2023-07-31T11:25:51;3.47;;;2.17;;
24273;SDS011;12392;42.678;23.380;2023-07-31T11:28:17;2.22;;;1.98;;
24273;SDS011;12392;42.678;23.380;2023-07-31T11:30:45;4.13;;;2.30;;
24273;SDS011;12392;42.678;23.380;2023-07-31T11:33:12;2.13;;;1.95;;
24273;SDS011;12392;42.678;23.380;2023-07-31T11:35:43;4.90;;;2.28;;
24273;SDS011;12392;42.678;23.380;2023-07-31T11:40:51;2.40;;;2.20;;
24273;SDS011;12392;42.678;23.380;2023-07-31T11:43:18;2.60;;;2.00;;
24273;SDS011;12392;42.678;23.380;2023-07-31T11:45:48;6.55;;;2.05;;
24273;SDS011;12392;42.678;23.380;2023-07-31T11:48:39;4.53;;;2.35;;
24273;SDS011;12392;42.678;23.380;2023-07-31T11:51:05;5.03;;;2.35;;
24273;SDS011;12392;42.678;23.380;2023-07-31T11:53:33;4.40;;;2.88;;
24273;SDS011;12392;42.678;23.380;2023-07-31T11:56:06;4.57;;;2.58;;
24273;SDS011;12392;42.678;23.380;2023-07-31T11:58:34;5.13;;;3.17;;
24273;SDS011;12392;42.678;23.380;2023-07-31T12:01:00;5.63;;;3.20;;
24273;SDS011;12392;42.678;23.380;2023-07-31T12:03:26;3.28;;;2.63;;
24273;SDS011;12392;42.678;23.380;2023-07-31T12:05:55;4.07;;;2.55;;
24273;SDS011;12392;42.678;23.380;2023-07-31T12:08:21;3.00;;;2.67;;
24273;SDS011;12392;42.678;23.380;2023-07-31T12:10:52;3.63;;;2.35;;
24273;SDS011;12392;42.678;23.380;2023-07-31T12:13:22;2.92;;;2.72;;
24273;SDS011;12392;42.678;23.380;2023-07-31T12:15:55;3.60;;;3.30;;
24273;SDS011;12392;42.678;23.380;2023-07-31T12:18:22;9.65;;;3.28;;
24273;SDS011;12392;42.678;23.380;2023-07-31T12:20:55;3.90;;;3.33;;
24273;SDS011;12392;42.678;23.380;2023-07-31T12:23:21;5.88;;;3.50;;
24273;SDS011;12392;42.678;23.380;2023-07-31T12:26:07;3.65;;;3.35;;
24273;SDS011;12392;42.678;23.380;2023-07-31T12:28:40;3.35;;;3.05;;
24273;SDS011;12392;42.678;23.380;2023-07-31T12:31:11;4.43;;;4.05;;
24273;SDS011;12392;42.678;23.380;2023-07-31T12:33:38;6.93;;;4.38;;
24273;SDS011;12392;42.678;23.380;2023-07-31T12:36:07;9.10;;;4.22;;
24273;SDS011;12392;42.678;23.380;2023-07-31T12:38:37;5.53;;;4.15;;
24273;SDS011;12392;42.678;23.380;2023-07-31T12:41:03;6.45;;;5.25;;
24273;SDS011;12392;42.678;23.380;2023-07-31T12:43:29;6.38;;;4.85;;
24273;SDS011;12392;42.678;23.380;2023-07-31T12:45:55;7.50;;;5.00;;
24273;SDS011;12392;42.678;23.380;2023-07-31T12:48:23;7.90;;;4.85;;
24273;SDS011;12392;42.678;23.380;2023-07-31T12:50:49;7.82;;;5.30;;
24273;SDS011;12392;42.678;23.380;2023-07-31T12:53:15;7.22;;;5.07;;
24273;SDS011;12392;42.678;23.380;2023-07-31T12:55:41;7.88;;;4.93;;
24273;SDS011;12392;42.678;23.380;2023-07-31T12:58:07;5.88;;;5.25;;
24273;SDS011;12392;42.678;23.380;2023-07-31T13:00:32;7.00;;;5.95;;
24273;SDS011;12392;42.678;23.380;2023-07-31T13:02:59;5.90;;;5.28;;
24273;SDS011;12392;42.678;23.380;2023-07-31T13:05:25;7.80;;;5.88;;
24273;SDS011;12392;42.678;23.380;2023-07-31T13:07:51;6.47;;;5.88;;
24273;SDS011;12392;42.678;23.380;2023-07-31T13:10:17;13.32;;;6.60;;
24273;SDS011;12392;42.678;23.380;2023-07-31T13:12:43;9.55;;;5.80;;
24273;SDS011;12392;42.678;23.380;2023-07-31T13:15:08;7.72;;;6.15;;
24273;SDS011;12392;42.678;23.380;2023-07-31T13:17:35;9.45;;;6.18;;
24273;SDS011;12392;42.678;23.380;2023-07-31T13:20:00;6.65;;;6.05;;
24273;SDS011;12392;42.678;23.380;2023-07-31T13:22:27;8.55;;;5.68;;
24273;SDS011;12392;42.678;23.380;2023-07-31T13:24:52;6.07;;;5.55;;
24273;SDS011;12392;42.678;23.380;2023-07-31T13:27:18;6.22;;;5.63;;
24273;SDS011;12392;42.678;23.380;2023-07-31T13:29:46;6.85;;;5.18;;
24273;SDS011;12392;42.678;23.380;2023-07-31T13:32:16;6.00;;;4.95;;
24273;SDS011;12392;42.678;23.380;2023-07-31T13:34:42;7.13;;;4.88;;
24273;SDS011;12392;42.678;23.380;2023-07-31T13:37:08;6.10;;;5.55;;
24273;SDS011;12392;42.678;23.380;2023-07-31T13:39:34;7.43;;;5.22;;
24273;SDS011;12392;42.678;23.380;2023-07-31T13:42:00;11.90;;;4.65;;
24273;SDS011;12392;42.678;23.380;2023-07-31T13:44:26;7.82;;;4.90;;
24273;SDS011;12392;42.678;23.380;2023-07-31T13:46:52;8.25;;;4.85;;
24273;SDS011;12392;42.678;23.380;2023-07-31T13:49:18;5.20;;;4.55;;
24273;SDS011;12392;42.678;23.380;2023-07-31T13:51:43;10.85;;;4.82;;
24273;SDS011;12392;42.678;23.380;2023-07-31T13:54:09;4.90;;;4.40;;
24273;SDS011;12392;42.678;23.380;2023-07-31T13:56:36;6.60;;;4.55;;
24273;SDS011;12392;42.678;23.380;2023-07-31T13:59:02;5.18;;;4.68;;
24273;SDS011;12392;42.678;23.380;2023-07-31T14:01:28;5.93;;;4.07;;
24273;SDS011;12392;42.678;23.380;2023-07-31T14:03:54;4.20;;;3.90;;
24273;SDS011;12392;42.678;23.380;2023-07-31T14:06:20;8.43;;;4.47;;
24273;SDS011;12392;42.678;23.380;2023-07-31T14:08:45;5.68;;;4.53;;
24273;SDS011;12392;42.678;23.380;2023-07-31T14:11:11;5.13;;;4.45;;
24273;SDS011;12392;42.678;23.380;2023-07-31T14:13:37;4.93;;;4.35;;
24273;SDS011;12392;42.678;23.380;2023-07-31T14:16:02;4.15;;;3.80;;
24273;SDS011;12392;42.678;23.380;2023-07-31T14:18:28;6.70;;;4.30;;
24273;SDS011;12392;42.678;23.380;2023-07-31T14:20:54;8.73;;;4.07;;
24273;SDS011;12392;42.678;23.380;2023-07-31T14:23:20;5.07;;;4.35;;
24273;SDS011;12392;42.678;23.380;2023-07-31T14:25:46;10.10;;;4.65;;
24273;SDS011;12392;42.678;23.380;2023-07-31T14:28:12;4.78;;;4.38;;
24273;SDS011;12392;42.678;23.380;2023-07-31T14:30:38;6.40;;;4.45;;
24273;SDS011;12392;42.678;23.380;2023-07-31T14:33:03;4.65;;;4.25;;
24273;SDS011;12392;42.678;23.380;2023-07-31T14:35:29;5.15;;;4.07;;
24273;SDS011;12392;42.678;23.380;2023-07-31T14:37:55;5.68;;;4.40;;
24273;SDS011;12392;42.678;23.380;2023-07-31T14:40:20;6.13;;;4.03;;